sensor_id;sensor_type;location;lat;lon;timestamp;temperature;humidity
60242;SHT30;46103;52.076;113.488;2023-07-16T00:00:18;22.09;60.35
60242;SHT30;46103;52.076;113.488;2023-07-16T00:03:27;22.26;59.88
60242;SHT30;46103;52.076;113.488;2023-07-16T00:06:30;22.33;59.70
60242;SHT30;46103;52.076;113.488;2023-07-16T00:09:34;22.44;59.42
60242;SHT30;46103;52.076;113.488;2023-07-16T00:12:38;22.57;59.15
60242;SHT30;46103;52.076;113.488;2023-07-16T00:15:42;22.74;58.45
60242;SHT30;46103;52.076;113.488;2023-07-16T00:18:45;22.78;58.43
60242;SHT30;46103;52.076;113.488;2023-07-16T00:21:49;23.02;57.96
60242;SHT30;46103;52.076;113.488;2023-07-16T00:24:52;23.03;57.97
60242;SHT30;46103;52.076;113.488;2023-07-16T00:27:56;23.09;57.58
60242;SHT30;46103;52.076;113.488;2023-07-16T00:30:59;23.26;57.28
60242;SHT30;46103;52.076;113.488;2023-07-16T00:34:05;23.27;57.06
60242;SHT30;46103;52.076;113.488;2023-07-16T00:37:09;23.36;57.01
60242;SHT30;46103;52.076;113.488;2023-07-16T00:40:14;23.46;56.82
60242;SHT30;46103;52.076;113.488;2023-07-16T00:43:18;23.68;56.37
60242;SHT30;46103;52.076;113.488;2023-07-16T00:46:22;23.78;56.17
60242;SHT30;46103;52.076;113.488;2023-07-16T00:49:27;23.75;56.43
60242;SHT30;46103;52.076;113.488;2023-07-16T00:52:32;23.94;56.01
60242;SHT30;46103;52.076;113.488;2023-07-16T00:55:38;24.06;55.75
60242;SHT30;46103;52.076;113.488;2023-07-16T00:58:43;24.25;55.44
60242;SHT30;46103;52.076;113.488;2023-07-16T01:01:46;24.37;54.88
60242;SHT30;46103;52.076;113.488;2023-07-16T01:04:49;24.50;54.69
60242;SHT30;46103;52.076;113.488;2023-07-16T01:07:57;24.61;54.42
60242;SHT30;46103;52.076;113.488;2023-07-16T01:11:03;24.74;53.97
60242;SHT30;46103;52.076;113.488;2023-07-16T01:14:08;24.61;54.24
60242;SHT30;46103;52.076;113.488;2023-07-16T01:17:13;24.71;54.03
60242;SHT30;46103;52.076;113.488;2023-07-16T01:20:17;24.78;54.02
60242;SHT30;46103;52.076;113.488;2023-07-16T01:29:54;25.11;53.88
60242;SHT30;46103;52.076;113.488;2023-07-16T01:32:57;25.26;53.55
60242;SHT30;46103;52.076;113.488;2023-07-16T01:36:04;25.45;53.19
60242;SHT30;46103;52.076;113.488;2023-07-16T01:39:09;25.26;53.46
60242;SHT30;46103;52.076;113.488;2023-07-16T01:42:13;25.31;53.65
60242;SHT30;46103;52.076;113.488;2023-07-16T01:45:16;25.45;53.80
60242;SHT30;46103;52.076;113.488;2023-07-16T01:51:33;25.76;53.65
60242;SHT30;46103;52.076;113.488;2023-07-16T01:54:37;25.87;53.45
60242;SHT30;46103;52.076;113.488;2023-07-16T01:57:41;25.91;54.04
60242;SHT30;46103;52.076;113.488;2023-07-16T02:00:45;25.80;54.20
60242;SHT30;46103;52.076;113.488;2023-07-16T02:03:49;26.00;54.05
60242;SHT30;46103;52.076;113.488;2023-07-16T02:06:52;26.24;53.45
60242;SHT30;46103;52.076;113.488;2023-07-16T02:09:56;26.32;53.16
60242;SHT30;46103;52.076;113.488;2023-07-16T02:13:00;26.39;53.05
60242;SHT30;46103;52.076;113.488;2023-07-16T02:16:04;26.51;52.96
60242;SHT30;46103;52.076;113.488;2023-07-16T02:19:08;26.78;52.92
60242;SHT30;46103;52.076;113.488;2023-07-16T02:22:11;26.97;52.04
60242;SHT30;46103;52.076;113.488;2023-07-16T02:25:15;26.99;51.87
60242;SHT30;46103;52.076;113.488;2023-07-16T02:28:20;27.06;52.08
60242;SHT30;46103;52.076;113.488;2023-07-16T02:31:24;27.07;52.27
60242;SHT30;46103;52.076;113.488;2023-07-16T02:34:28;27.07;52.27
60242;SHT30;46103;52.076;113.488;2023-07-16T02:37:31;26.99;52.41
60242;SHT30;46103;52.076;113.488;2023-07-16T02:40:35;27.11;51.94
60242;SHT30;46103;52.076;113.488;2023-07-16T02:43:39;27.27;51.78
60242;SHT30;46103;52.076;113.488;2023-07-16T02:46:42;27.38;51.53
60242;SHT30;46103;52.076;113.488;2023-07-16T02:49:50;27.66;51.18
60242;SHT30;46103;52.076;113.488;2023-07-16T02:52:54;28.02;50.01
60242;SHT30;46103;52.076;113.488;2023-07-16T02:55:57;28.10;49.54
60242;SHT30;46103;52.076;113.488;2023-07-16T02:59:01;28.28;49.62
60242;SHT30;46103;52.076;113.488;2023-07-16T03:02:06;28.47;48.86
60242;SHT30;46103;52.076;113.488;2023-07-16T03:05:09;28.54;48.82
60242;SHT30;46103;52.076;113.488;2023-07-16T03:08:13;28.74;48.44
60242;SHT30;46103;52.076;113.488;2023-07-16T03:11:17;28.75;48.64
60242;SHT30;46103;52.076;113.488;2023-07-16T03:14:20;28.57;48.93
60242;SHT30;46103;52.076;113.488;2023-07-16T03:17:24;28.88;48.29
60242;SHT30;46103;52.076;113.488;2023-07-16T03:20:29;29.06;47.98
60242;SHT30;46103;52.076;113.488;2023-07-16T03:23:32;28.98;48.16
60242;SHT30;46103;52.076;113.488;2023-07-16T03:26:51;29.23;47.78
60242;SHT30;46103;52.076;113.488;2023-07-16T03:30:03;29.42;47.54
60242;SHT30;46103;52.076;113.488;2023-07-16T03:33:07;29.43;47.67
60242;SHT30;46103;52.076;113.488;2023-07-16T03:36:10;29.53;47.84
60242;SHT30;46103;52.076;113.488;2023-07-16T03:39:16;29.68;47.65
60242;SHT30;46103;52.076;113.488;2023-07-16T03:42:19;29.74;47.56
60242;SHT30;46103;52.076;113.488;2023-07-16T03:45:25;29.91;47.57
60242;SHT30;46103;52.076;113.488;2023-07-16T03:48:28;30.16;47.02
60242;SHT30;46103;52.076;113.488;2023-07-16T03:51:32;30.32;47.15
60242;SHT30;46103;52.076;113.488;2023-07-16T03:54:35;30.50;47.26
60242;SHT30;46103;52.076;113.488;2023-07-16T03:57:40;30.61;47.12
60242;SHT30;46103;52.076;113.488;2023-07-16T04:00:44;30.71;46.74
60242;SHT30;46103;52.076;113.488;2023-07-16T04:03:47;30.92;46.08
60242;SHT30;46103;52.076;113.488;2023-07-16T04:06:51;31.11;45.90
60242;SHT30;46103;52.076;113.488;2023-07-16T04:09:55;30.94;46.56
60242;SHT30;46103;52.076;113.488;2023-07-16T04:12:58;30.85;45.99
60242;SHT30;46103;52.076;113.488;2023-07-16T04:16:02;31.01;45.81
60242;SHT30;46103;52.076;113.488;2023-07-16T04:19:05;30.88;46.58
60242;SHT30;46103;52.076;113.488;2023-07-16T04:22:11;30.83;46.51
60242;SHT30;46103;52.076;113.488;2023-07-16T04:25:14;31.02;46.23
60242;SHT30;46103;52.076;113.488;2023-07-16T04:28:18;30.99;46.49
60242;SHT30;46103;52.076;113.488;2023-07-16T04:31:23;31.07;45.82
60242;SHT30;46103;52.076;113.488;2023-07-16T04:34:28;31.18;45.07
60242;SHT30;46103;52.076;113.488;2023-07-16T04:37:32;31.43;44.74
60242;SHT30;46103;52.076;113.488;2023-07-16T04:40:36;31.66;44.33
60242;SHT30;46103;52.076;113.488;2023-07-16T04:43:39;31.63;44.62
60242;SHT30;46103;52.076;113.488;2023-07-16T04:46:42;31.96;42.84
60242;SHT30;46103;52.076;113.488;2023-07-16T04:49:46;32.10;43.27
60242;SHT30;46103;52.076;113.488;2023-07-16T04:52:49;32.00;44.16
60242;SHT30;46103;52.076;113.488;2023-07-16T04:55:53;32.04;44.53
60242;SHT30;46103;52.076;113.488;2023-07-16T04:58:56;32.06;43.94
60242;SHT30;46103;52.076;113.488;2023-07-16T05:02:02;32.25;44.21
60242;SHT30;46103;52.076;113.488;2023-07-16T05:05:05;32.49;44.02
60242;SHT30;46103;52.076;113.488;2023-07-16T05:08:10;32.38;42.22
60242;SHT30;46103;52.076;113.488;2023-07-16T05:11:13;32.59;41.96
60242;SHT30;46103;52.076;113.488;2023-07-16T05:14:17;32.78;41.72
60242;SHT30;46103;52.076;113.488;2023-07-16T05:17:21;33.10;41.07
60242;SHT30;46103;52.076;113.488;2023-07-16T05:20:25;32.82;41.87
60242;SHT30;46103;52.076;113.488;2023-07-16T05:23:28;32.58;42.75
60242;SHT30;46103;52.076;113.488;2023-07-16T05:26:32;32.23;41.49
60242;SHT30;46103;52.076;113.488;2023-07-16T05:29:36;31.94;44.02
60242;SHT30;46103;52.076;113.488;2023-07-16T05:32:40;31.83;44.15
60242;SHT30;46103;52.076;113.488;2023-07-16T05:35:48;31.94;44.13
60242;SHT30;46103;52.076;113.488;2023-07-16T05:38:53;32.01;44.90
60242;SHT30;46103;52.076;113.488;2023-07-16T05:41:56;32.24;44.33
60242;SHT30;46103;52.076;113.488;2023-07-16T05:45:00;32.48;43.20
60242;SHT30;46103;52.076;113.488;2023-07-16T05:48:04;32.41;42.08
60242;SHT30;46103;52.076;113.488;2023-07-16T05:51:08;32.46;42.33
60242;SHT30;46103;52.076;113.488;2023-07-16T05:54:11;32.56;42.90
60242;SHT30;46103;52.076;113.488;2023-07-16T05:57:15;32.73;41.25
60242;SHT30;46103;52.076;113.488;2023-07-16T06:00:18;33.03;40.64
60242;SHT30;46103;52.076;113.488;2023-07-16T06:03:22;33.41;39.86
60242;SHT30;46103;52.076;113.488;2023-07-16T06:06:26;33.89;39.28
60242;SHT30;46103;52.076;113.488;2023-07-16T06:09:32;33.95;38.51
60242;SHT30;46103;52.076;113.488;2023-07-16T06:12:35;33.66;39.61
60242;SHT30;46103;52.076;113.488;2023-07-16T06:16:04;33.62;40.66
60242;SHT30;46103;52.076;113.488;2023-07-16T06:19:07;33.51;40.70
60242;SHT30;46103;52.076;113.488;2023-07-16T06:22:11;33.24;41.04
60242;SHT30;46103;52.076;113.488;2023-07-16T06:25:14;33.26;41.11
60242;SHT30;46103;52.076;113.488;2023-07-16T06:28:18;32.61;41.55
60242;SHT30;46103;52.076;113.488;2023-07-16T06:31:21;32.29;41.88
60242;SHT30;46103;52.076;113.488;2023-07-16T06:34:28;31.83;42.91
60242;SHT30;46103;52.076;113.488;2023-07-16T06:37:31;31.66;43.52
60242;SHT30;46103;52.076;113.488;2023-07-16T06:40:35;31.53;41.85
60242;SHT30;46103;52.076;113.488;2023-07-16T06:43:38;31.39;37.55
60242;SHT30;46103;52.076;113.488;2023-07-16T06:46:41;32.15;35.92
60242;SHT30;46103;52.076;113.488;2023-07-16T06:49:45;33.27;34.78
60242;SHT30;46103;52.076;113.488;2023-07-16T06:52:48;34.43;34.47
60242;SHT30;46103;52.076;113.488;2023-07-16T06:55:52;35.38;31.98
60242;SHT30;46103;52.076;113.488;2023-07-16T06:58:56;36.33;31.16
60242;SHT30;46103;52.076;113.488;2023-07-16T07:04:54;38.21;28.70
60242;SHT30;46103;52.076;113.488;2023-07-16T07:07:59;38.23;28.09
60242;SHT30;46103;52.076;113.488;2023-07-16T07:13:18;38.65;27.71
60242;SHT30;46103;52.076;113.488;2023-07-16T07:16:23;39.70;26.22
60242;SHT30;46103;52.076;113.488;2023-07-16T07:19:26;40.36;25.63
60242;SHT30;46103;52.076;113.488;2023-07-16T08:00:38;37.65;31.15
60242;SHT30;46103;52.076;113.488;2023-07-16T08:03:43;39.56;28.70
60242;SHT30;46103;52.076;113.488;2023-07-16T08:06:46;41.07;26.84
60242;SHT30;46103;52.076;113.488;2023-07-16T08:09:51;42.03;26.06
60242;SHT30;46103;52.076;113.488;2023-07-16T08:12:54;42.35;25.51
60242;SHT30;46103;52.076;113.488;2023-07-16T08:15:58;43.50;24.43
60242;SHT30;46103;52.076;113.488;2023-07-16T08:19:01;44.52;23.64
60242;SHT30;46103;52.076;113.488;2023-07-16T08:22:06;45.46;22.89
60242;SHT30;46103;52.076;113.488;2023-07-16T08:25:10;46.10;22.83
60242;SHT30;46103;52.076;113.488;2023-07-16T08:28:14;46.93;22.50
60242;SHT30;46103;52.076;113.488;2023-07-16T08:31:18;47.44;21.76
60242;SHT30;46103;52.076;113.488;2023-07-16T08:34:22;47.95;21.51
60242;SHT30;46103;52.076;113.488;2023-07-16T08:37:26;48.49;21.08
60242;SHT30;46103;52.076;113.488;2023-07-16T08:40:31;49.18;20.40
60242;SHT30;46103;52.076;113.488;2023-07-16T08:43:35;49.45;20.32
60242;SHT30;46103;52.076;113.488;2023-07-16T08:46:40;50.16;19.74
60242;SHT30;46103;52.076;113.488;2023-07-16T08:49:55;50.65;19.50
60242;SHT30;46103;52.076;113.488;2023-07-16T08:53:01;50.97;19.11
60242;SHT30;46103;52.076;113.488;2023-07-16T08:56:07;50.94;19.12
60242;SHT30;46103;52.076;113.488;2023-07-16T08:59:12;50.60;19.33
60242;SHT30;46103;52.076;113.488;2023-07-16T09:02:20;50.31;19.38
60242;SHT30;46103;52.076;113.488;2023-07-16T09:05:25;50.35;19.33
60242;SHT30;46103;52.076;113.488;2023-07-16T09:08:41;50.21;19.55
60242;SHT30;46103;52.076;113.488;2023-07-16T09:11:49;50.06;19.61
60242;SHT30;46103;52.076;113.488;2023-07-16T09:14:54;49.53;20.03
60242;SHT30;46103;52.076;113.488;2023-07-16T09:18:02;48.83;20.43
60242;SHT30;46103;52.076;113.488;2023-07-16T09:21:06;48.12;20.79
60242;SHT30;46103;52.076;113.488;2023-07-16T09:24:10;47.73;20.94
60242;SHT30;46103;52.076;113.488;2023-07-16T09:27:15;47.98;20.49
60242;SHT30;46103;52.076;113.488;2023-07-16T09:30:19;48.50;20.05
60242;SHT30;46103;52.076;113.488;2023-07-16T09:33:24;49.30;19.59
60242;SHT30;46103;52.076;113.488;2023-07-16T09:36:30;50.00;18.96
60242;SHT30;46103;52.076;113.488;2023-07-16T09:39:36;49.66;19.12
60242;SHT30;46103;52.076;113.488;2023-07-16T09:42:42;49.65;19.36
60242;SHT30;46103;52.076;113.488;2023-07-16T09:45:47;48.79;20.30
60242;SHT30;46103;52.076;113.488;2023-07-16T09:48:51;48.52;20.31
60242;SHT30;46103;52.076;113.488;2023-07-16T09:51:57;48.19;20.28
60242;SHT30;46103;52.076;113.488;2023-07-16T09:55:03;48.31;19.91
60242;SHT30;46103;52.076;113.488;2023-07-16T09:58:10;48.53;19.72
60242;SHT30;46103;52.076;113.488;2023-07-16T10:01:18;48.29;19.77
60242;SHT30;46103;52.076;113.488;2023-07-16T10:04:22;48.71;19.69
60242;SHT30;46103;52.076;113.488;2023-07-16T10:07:26;47.33;20.95
60242;SHT30;46103;52.076;113.488;2023-07-16T10:10:41;44.90;23.92
60242;SHT30;46103;52.076;113.488;2023-07-16T10:13:49;42.38;26.74
60242;SHT30;46103;52.076;113.488;2023-07-16T10:17:01;41.60;28.07
60242;SHT30;46103;52.076;113.488;2023-07-16T10:20:10;40.97;28.24
60242;SHT30;46103;52.076;113.488;2023-07-16T10:23:16;40.38;28.60
60242;SHT30;46103;52.076;113.488;2023-07-16T10:26:26;40.67;28.59
60242;SHT30;46103;52.076;113.488;2023-07-16T10:29:31;41.13;28.50
60242;SHT30;46103;52.076;113.488;2023-07-16T10:32:35;41.21;28.45
60242;SHT30;46103;52.076;113.488;2023-07-16T10:35:42;42.17;27.33
60242;SHT30;46103;52.076;113.488;2023-07-16T10:38:46;42.79;26.09
60242;SHT30;46103;52.076;113.488;2023-07-16T10:41:49;43.31;25.55
60242;SHT30;46103;52.076;113.488;2023-07-16T10:44:55;43.23;25.79
60242;SHT30;46103;52.076;113.488;2023-07-16T10:48:00;43.77;24.93
60242;SHT30;46103;52.076;113.488;2023-07-16T10:51:04;43.82;24.87
60242;SHT30;46103;52.076;113.488;2023-07-16T10:54:08;44.01;24.54
60242;SHT30;46103;52.076;113.488;2023-07-16T10:57:13;43.71;24.67
60242;SHT30;46103;52.076;113.488;2023-07-16T11:00:17;43.30;25.10
60242;SHT30;46103;52.076;113.488;2023-07-16T11:03:22;42.51;26.75
60242;SHT30;46103;52.076;113.488;2023-07-16T11:06:26;41.60;27.74
60242;SHT30;46103;52.076;113.488;2023-07-16T11:09:31;41.45;27.83
60242;SHT30;46103;52.076;113.488;2023-07-16T11:12:34;41.46;27.93
60242;SHT30;46103;52.076;113.488;2023-07-16T11:15:39;41.22;28.27
60242;SHT30;46103;52.076;113.488;2023-07-16T11:18:43;41.46;28.09
60242;SHT30;46103;52.076;113.488;2023-07-16T11:21:47;41.25;27.99
60242;SHT30;46103;52.076;113.488;2023-07-16T11:24:51;40.62;28.40
60242;SHT30;46103;52.076;113.488;2023-07-16T11:27:55;39.47;29.43
60242;SHT30;46103;52.076;113.488;2023-07-16T11:31:16;38.89;30.28
60242;SHT30;46103;52.076;113.488;2023-07-16T11:34:22;38.99;30.31
60242;SHT30;46103;52.076;113.488;2023-07-16T11:37:26;38.16;31.12
60242;SHT30;46103;52.076;113.488;2023-07-16T11:40:31;37.10;32.51
60242;SHT30;46103;52.076;113.488;2023-07-16T11:43:37;35.87;33.88
60242;SHT30;46103;52.076;113.488;2023-07-16T11:46:46;34.13;35.78
60242;SHT30;46103;52.076;113.488;2023-07-16T11:49:50;33.03;37.85
60242;SHT30;46103;52.076;113.488;2023-07-16T11:53:00;32.17;39.76
60242;SHT30;46103;52.076;113.488;2023-07-16T11:56:04;31.58;40.56
60242;SHT30;46103;52.076;113.488;2023-07-16T11:59:08;31.32;41.47
60242;SHT30;46103;52.076;113.488;2023-07-16T12:02:15;31.25;44.04
60242;SHT30;46103;52.076;113.488;2023-07-16T12:05:22;30.70;46.44
60242;SHT30;46103;52.076;113.488;2023-07-16T12:08:51;30.22;47.85
60242;SHT30;46103;52.076;113.488;2023-07-16T12:11:56;29.84;48.64
60242;SHT30;46103;52.076;113.488;2023-07-16T12:15:00;29.60;48.92
60242;SHT30;46103;52.076;113.488;2023-07-16T12:18:04;29.61;49.26
60242;SHT30;46103;52.076;113.488;2023-07-16T12:21:10;29.73;49.27
60242;SHT30;46103;52.076;113.488;2023-07-16T12:24:16;29.71;49.20
60242;SHT30;46103;52.076;113.488;2023-07-16T12:27:26;29.51;49.76
60242;SHT30;46103;52.076;113.488;2023-07-16T12:30:38;29.27;50.54
60242;SHT30;46103;52.076;113.488;2023-07-16T12:33:45;29.05;50.69
60242;SHT30;46103;52.076;113.488;2023-07-16T12:36:51;28.82;50.77
60242;SHT30;46103;52.076;113.488;2023-07-16T12:40:12;28.60;50.52
60242;SHT30;46103;52.076;113.488;2023-07-16T12:43:18;28.44;50.91
60242;SHT30;46103;52.076;113.488;2023-07-16T12:46:24;28.27;51.41
60242;SHT30;46103;52.076;113.488;2023-07-16T12:49:28;28.02;51.98
60242;SHT30;46103;52.076;113.488;2023-07-16T12:52:32;27.84;52.49
60242;SHT30;46103;52.076;113.488;2023-07-16T12:55:37;27.61;53.14
60242;SHT30;46103;52.076;113.488;2023-07-16T12:58:41;27.37;53.37
60242;SHT30;46103;52.076;113.488;2023-07-16T13:01:46;27.24;52.79
60242;SHT30;46103;52.076;113.488;2023-07-16T13:04:49;27.15;55.06
60242;SHT30;46103;52.076;113.488;2023-07-16T13:07:55;26.94;54.59
60242;SHT30;46103;52.076;113.488;2023-07-16T13:10:59;26.76;55.04
60242;SHT30;46103;52.076;113.488;2023-07-16T13:14:14;26.66;54.01
60242;SHT30;46103;52.076;113.488;2023-07-16T13:17:18;26.55;55.63
60242;SHT30;46103;52.076;113.488;2023-07-16T13:20:27;26.37;55.57
60242;SHT30;46103;52.076;113.488;2023-07-16T13:23:37;26.18;55.86
60242;SHT30;46103;52.076;113.488;2023-07-16T13:26:42;26.02;56.25
60242;SHT30;46103;52.076;113.488;2023-07-16T13:29:50;25.98;57.50
60242;SHT30;46103;52.076;113.488;2023-07-16T13:32:54;25.83;57.01
60242;SHT30;46103;52.076;113.488;2023-07-16T13:35:59;25.79;58.18
60242;SHT30;46103;52.076;113.488;2023-07-16T13:39:06;25.67;58.67
60242;SHT30;46103;52.076;113.488;2023-07-16T13:42:12;25.62;59.10
60242;SHT30;46103;52.076;113.488;2023-07-16T13:45:24;25.47;58.84
60242;SHT30;46103;52.076;113.488;2023-07-16T13:48:29;25.38;58.21
60242;SHT30;46103;52.076;113.488;2023-07-16T13:51:50;25.24;58.71
60242;SHT30;46103;52.076;113.488;2023-07-16T13:54:53;25.10;59.28
60242;SHT30;46103;52.076;113.488;2023-07-16T13:57:57;24.98;59.10
60242;SHT30;46103;52.076;113.488;2023-07-16T14:01:00;24.86;59.32
60242;SHT30;46103;52.076;113.488;2023-07-16T14:04:04;24.74;59.89
60242;SHT30;46103;52.076;113.488;2023-07-16T14:07:09;24.64;60.50
60242;SHT30;46103;52.076;113.488;2023-07-16T14:10:15;24.57;60.79
60242;SHT30;46103;52.076;113.488;2023-07-16T14:13:19;24.53;61.56
60242;SHT30;46103;52.076;113.488;2023-07-16T14:16:23;24.43;61.34
60242;SHT30;46103;52.076;113.488;2023-07-16T14:19:26;24.32;61.43
60242;SHT30;46103;52.076;113.488;2023-07-16T14:22:31;24.26;61.89
60242;SHT30;46103;52.076;113.488;2023-07-16T14:26:00;24.14;62.19
60242;SHT30;46103;52.076;113.488;2023-07-16T14:29:04;24.08;62.07
60242;SHT30;46103;52.076;113.488;2023-07-16T14:32:08;23.95;63.13
60242;SHT30;46103;52.076;113.488;2023-07-16T14:35:22;23.81;64.23
60242;SHT30;46103;52.076;113.488;2023-07-16T14:38:39;23.70;64.45
60242;SHT30;46103;52.076;113.488;2023-07-16T14:41:57;23.67;64.43
60242;SHT30;46103;52.076;113.488;2023-07-16T14:45:04;23.67;65.26
60242;SHT30;46103;52.076;113.488;2023-07-16T14:48:08;23.64;66.83
60242;SHT30;46103;52.076;113.488;2023-07-16T14:51:13;23.46;66.99
60242;SHT30;46103;52.076;113.488;2023-07-16T14:54:17;23.20;68.53
60242;SHT30;46103;52.076;113.488;2023-07-16T14:57:21;23.15;69.54
60242;SHT30;46103;52.076;113.488;2023-07-16T15:00:25;23.12;69.45
60242;SHT30;46103;52.076;113.488;2023-07-16T15:03:29;23.05;69.31
60242;SHT30;46103;52.076;113.488;2023-07-16T15:06:33;23.02;69.24
60242;SHT30;46103;52.076;113.488;2023-07-16T15:09:37;22.92;69.50
60242;SHT30;46103;52.076;113.488;2023-07-16T15:12:41;22.84;69.83
60242;SHT30;46103;52.076;113.488;2023-07-16T15:15:49;22.72;70.06
60242;SHT30;46103;52.076;113.488;2023-07-16T15:18:52;22.67;69.94
60242;SHT30;46103;52.076;113.488;2023-07-16T15:21:56;22.60;69.16
60242;SHT30;46103;52.076;113.488;2023-07-16T15:25:00;22.55;69.29
60242;SHT30;46103;52.076;113.488;2023-07-16T15:28:04;22.51;70.15
60242;SHT30;46103;52.076;113.488;2023-07-16T15:31:08;22.43;69.96
60242;SHT30;46103;52.076;113.488;2023-07-16T15:34:12;22.51;69.34
60242;SHT30;46103;52.076;113.488;2023-07-16T15:37:15;22.51;68.48
60242;SHT30;46103;52.076;113.488;2023-07-16T15:40:20;22.43;67.77
60242;SHT30;46103;52.076;113.488;2023-07-16T15:43:24;22.32;68.19
60242;SHT30;46103;52.076;113.488;2023-07-16T15:46:29;22.37;68.48
60242;SHT30;46103;52.076;113.488;2023-07-16T15:49:32;22.30;67.42
60242;SHT30;46103;52.076;113.488;2023-07-16T15:52:37;22.19;67.84
60242;SHT30;46103;52.076;113.488;2023-07-16T15:55:40;22.05;70.91
60242;SHT30;46103;52.076;113.488;2023-07-16T15:58:44;21.89;70.86
60242;SHT30;46103;52.076;113.488;2023-07-16T16:01:48;21.88;70.61
60242;SHT30;46103;52.076;113.488;2023-07-16T16:04:52;21.95;70.12
60242;SHT30;46103;52.076;113.488;2023-07-16T16:08:16;21.83;69.31
60242;SHT30;46103;52.076;113.488;2023-07-16T16:11:20;21.71;69.05
60242;SHT30;46103;52.076;113.488;2023-07-16T16:14:25;21.63;69.37
60242;SHT30;46103;52.076;113.488;2023-07-16T16:17:32;21.68;70.10
60242;SHT30;46103;52.076;113.488;2023-07-16T16:20:37;21.74;69.01
60242;SHT30;46103;52.076;113.488;2023-07-16T16:23:41;21.62;68.72
60242;SHT30;46103;52.076;113.488;2023-07-16T16:26:44;21.55;69.15
60242;SHT30;46103;52.076;113.488;2023-07-16T16:29:49;21.38;69.53
60242;SHT30;46103;52.076;113.488;2023-07-16T16:32:52;21.33;70.56
60242;SHT30;46103;52.076;113.488;2023-07-16T16:36:00;21.30;70.34
60242;SHT30;46103;52.076;113.488;2023-07-16T16:39:03;21.23;70.10
60242;SHT30;46103;52.076;113.488;2023-07-16T16:42:08;21.17;70.71
60242;SHT30;46103;52.076;113.488;2023-07-16T16:45:12;21.23;70.80
60242;SHT30;46103;52.076;113.488;2023-07-16T16:48:16;21.14;71.58
60242;SHT30;46103;52.076;113.488;2023-07-16T16:51:19;21.16;71.39
60242;SHT30;46103;52.076;113.488;2023-07-16T16:54:24;21.13;70.55
60242;SHT30;46103;52.076;113.488;2023-07-16T16:57:28;21.07;71.98
60242;SHT30;46103;52.076;113.488;2023-07-16T17:00:32;21.00;71.38
60242;SHT30;46103;52.076;113.488;2023-07-16T17:03:35;20.89;71.94
60242;SHT30;46103;52.076;113.488;2023-07-16T17:06:39;20.87;71.72
60242;SHT30;46103;52.076;113.488;2023-07-16T17:09:44;20.82;72.06
60242;SHT30;46103;52.076;113.488;2023-07-16T17:12:48;20.71;72.25
60242;SHT30;46103;52.076;113.488;2023-07-16T17:15:52;20.51;73.22
60242;SHT30;46103;52.076;113.488;2023-07-16T17:18:56;20.14;74.67
60242;SHT30;46103;52.076;113.488;2023-07-16T17:22:00;20.10;75.02
60242;SHT30;46103;52.076;113.488;2023-07-16T17:25:04;20.10;75.04
60242;SHT30;46103;52.076;113.488;2023-07-16T17:28:12;20.11;75.26
60242;SHT30;46103;52.076;113.488;2023-07-16T17:31:16;20.11;75.19
60242;SHT30;46103;52.076;113.488;2023-07-16T17:34:20;20.04;75.29
60242;SHT30;46103;52.076;113.488;2023-07-16T17:37:24;20.01;75.07
60242;SHT30;46103;52.076;113.488;2023-07-16T17:40:28;19.98;74.89
60242;SHT30;46103;52.076;113.488;2023-07-16T17:43:33;19.94;74.67
60242;SHT30;46103;52.076;113.488;2023-07-16T17:46:36;19.96;75.33
60242;SHT30;46103;52.076;113.488;2023-07-16T17:49:40;20.04;74.59
60242;SHT30;46103;52.076;113.488;2023-07-16T17:52:44;19.93;74.46
60242;SHT30;46103;52.076;113.488;2023-07-16T17:55:48;19.90;75.13
60242;SHT30;46103;52.076;113.488;2023-07-16T17:58:52;19.87;75.45
60242;SHT30;46103;52.076;113.488;2023-07-16T18:01:56;19.87;75.47
60242;SHT30;46103;52.076;113.488;2023-07-16T18:04:59;19.80;75.58
60242;SHT30;46103;52.076;113.488;2023-07-16T18:08:04;19.79;76.08
60242;SHT30;46103;52.076;113.488;2023-07-16T18:11:07;19.76;75.62
60242;SHT30;46103;52.076;113.488;2023-07-16T18:14:12;19.72;75.75
60242;SHT30;46103;52.076;113.488;2023-07-16T18:17:16;19.70;76.04
60242;SHT30;46103;52.076;113.488;2023-07-16T18:20:21;19.55;76.54
60242;SHT30;46103;52.076;113.488;2023-07-16T18:23:25;19.41;77.14
60242;SHT30;46103;52.076;113.488;2023-07-16T18:26:29;19.39;77.23
60242;SHT30;46103;52.076;113.488;2023-07-16T18:29:33;19.36;77.18
60242;SHT30;46103;52.076;113.488;2023-07-16T18:32:38;19.38;77.30
60242;SHT30;46103;52.076;113.488;2023-07-16T18:35:41;19.42;77.64
60242;SHT30;46103;52.076;113.488;2023-07-16T18:38:49;19.35;77.34
60242;SHT30;46103;52.076;113.488;2023-07-16T18:41:52;19.34;77.11
60242;SHT30;46103;52.076;113.488;2023-07-16T18:44:56;19.38;77.26
60242;SHT30;46103;52.076;113.488;2023-07-16T18:48:05;19.39;77.25
60242;SHT30;46103;52.076;113.488;2023-07-16T18:51:11;19.34;77.19
60242;SHT30;46103;52.076;113.488;2023-07-16T18:54:14;19.31;76.97
60242;SHT30;46103;52.076;113.488;2023-07-16T18:57:19;19.25;77.15
60242;SHT30;46103;52.076;113.488;2023-07-16T19:00:23;19.18;77.30
60242;SHT30;46103;52.076;113.488;2023-07-16T19:03:27;19.07;77.45
60242;SHT30;46103;52.076;113.488;2023-07-16T19:06:33;19.06;77.98
60242;SHT30;46103;52.076;113.488;2023-07-16T19:09:37;19.07;78.31
60242;SHT30;46103;52.076;113.488;2023-07-16T19:12:41;19.06;78.42
60242;SHT30;46103;52.076;113.488;2023-07-16T19:15:46;19.04;78.64
60242;SHT30;46103;52.076;113.488;2023-07-16T19:18:50;19.04;78.57
60242;SHT30;46103;52.076;113.488;2023-07-16T19:21:54;19.04;78.41
60242;SHT30;46103;52.076;113.488;2023-07-16T19:24:57;19.07;78.35
60242;SHT30;46103;52.076;113.488;2023-07-16T19:28:04;18.91;78.70
60242;SHT30;46103;52.076;113.488;2023-07-16T19:31:08;18.74;79.16
60242;SHT30;46103;52.076;113.488;2023-07-16T19:34:12;18.73;79.27
60242;SHT30;46103;52.076;113.488;2023-07-16T19:37:16;18.72;79.40
60242;SHT30;46103;52.076;113.488;2023-07-16T19:40:21;18.70;79.44
60242;SHT30;46103;52.076;113.488;2023-07-16T19:43:25;18.66;79.33
60242;SHT30;46103;52.076;113.488;2023-07-16T19:46:29;18.64;78.92